sensor_id;sensor_type;location;lat;lon;timestamp;P1;durP1;ratioP1;P2;durP2;ratioP2
12800;SDS011;6464;42.494;27.470;2023-06-14T04:02:50;0.20;;;0.20;;
12800;SDS011;6464;42.494;27.470;2023-06-14T04:05:18;0.20;;;0.20;;
12800;SDS011;6464;42.494;27.470;2023-06-14T04:07:47;0.20;;;0.20;;
12800;SDS011;6464;42.494;27.470;2023-06-14T04:10:29;0.20;;;0.20;;
12800;SDS011;6464;42.494;27.470;2023-06-14T04:13:03;0.20;;;0.20;;
12800;SDS011;6464;42.494;27.470;2023-06-14T04:15:38;0.20;;;0.20;;
12800;SDS011;6464;42.494;27.470;2023-06-14T04:18:13;0.20;;;0.20;;
12800;SDS011;6464;42.494;27.470;2023-06-14T04:20:43;0.30;;;0.30;;
12800;SDS011;6464;42.494;27.470;2023-06-14T04:23:37;0.30;;;0.30;;
12800;SDS011;6464;42.494;27.470;2023-06-14T04:26:09;0.40;;;0.40;;
12800;SDS011;6464;42.494;27.470;2023-06-14T04:28:39;0.40;;;0.40;;
12800;SDS011;6464;42.494;27.470;2023-06-14T04:31:20;0.40;;;0.40;;
12800;SDS011;6464;42.494;27.470;2023-06-14T04:33:55;0.35;;;0.35;;
12800;SDS011;6464;42.494;27.470;2023-06-14T04:36:24;0.40;;;0.40;;
12800;SDS011;6464;42.494;27.470;2023-06-14T04:47:01;0.70;;;0.70;;
12800;SDS011;6464;42.494;27.470;2023-06-14T04:54:51;1.30;;;1.30;;
12800;SDS011;6464;42.494;27.470;2023-06-14T04:59:59;1.30;;;1.30;;
12800;SDS011;6464;42.494;27.470;2023-06-14T05:02:44;1.20;;;1.20;;
12800;SDS011;6464;42.494;27.470;2023-06-14T05:05:19;1.20;;;1.20;;
12800;SDS011;6464;42.494;27.470;2023-06-14T05:07:51;1.30;;;1.30;;
12800;SDS011;6464;42.494;27.470;2023-06-14T05:10:34;1.30;;;1.30;;
12800;SDS011;6464;42.494;27.470;2023-06-14T05:13:12;1.30;;;1.30;;
12800;SDS011;6464;42.494;27.470;2023-06-14T05:18:18;1.40;;;1.40;;
12800;SDS011;6464;42.494;27.470;2023-06-14T05:21:00;1.50;;;1.50;;
12800;SDS011;6464;42.494;27.470;2023-06-14T05:23:42;1.50;;;1.50;;
12800;SDS011;6464;42.494;27.470;2023-06-14T05:26:21;1.70;;;1.70;;
12800;SDS011;6464;42.494;27.470;2023-06-14T05:28:54;1.60;;;1.60;;
12800;SDS011;6464;42.494;27.470;2023-06-14T05:31:26;2.00;;;2.00;;
12800;SDS011;6464;42.494;27.470;2023-06-14T05:34:17;2.20;;;2.20;;
12800;SDS011;6464;42.494;27.470;2023-06-14T05:37:16;2.40;;;2.40;;
12800;SDS011;6464;42.494;27.470;2023-06-14T05:39:53;2.50;;;2.50;;
12800;SDS011;6464;42.494;27.470;2023-06-14T05:49:09;2.90;;;2.90;;
12800;SDS011;6464;42.494;27.470;2023-06-14T05:51:41;3.40;;;3.40;;
12800;SDS011;6464;42.494;27.470;2023-06-14T05:57:39;3.80;;;3.70;;
12800;SDS011;6464;42.494;27.470;2023-06-14T06:03:46;3.40;;;3.40;;
12800;SDS011;6464;42.494;27.470;2023-06-14T06:06:52;3.70;;;3.70;;
12800;SDS011;6464;42.494;27.470;2023-06-14T06:09:20;3.90;;;3.80;;
12800;SDS011;6464;42.494;27.470;2023-06-14T06:11:47;4.20;;;4.10;;
12800;SDS011;6464;42.494;27.470;2023-06-14T06:14:14;4.30;;;4.20;;
12800;SDS011;6464;42.494;27.470;2023-06-14T06:16:41;4.10;;;4.00;;
12800;SDS011;6464;42.494;27.470;2023-06-14T06:19:08;4.20;;;4.10;;
12800;SDS011;6464;42.494;27.470;2023-06-14T06:21:35;4.07;;;3.97;;
12800;SDS011;6464;42.494;27.470;2023-06-14T06:24:06;4.20;;;4.10;;
12800;SDS011;6464;42.494;27.470;2023-06-14T06:26:34;4.10;;;4.00;;
12800;SDS011;6464;42.494;27.470;2023-06-14T06:29:11;4.30;;;4.20;;
12800;SDS011;6464;42.494;27.470;2023-06-14T06:32:02;4.20;;;4.10;;
12800;SDS011;6464;42.494;27.470;2023-06-14T06:34:46;3.90;;;3.80;;
12800;SDS011;6464;42.494;27.470;2023-06-14T06:37:19;4.20;;;4.10;;
12800;SDS011;6464;42.494;27.470;2023-06-14T06:42:31;4.30;;;4.20;;
12800;SDS011;6464;42.494;27.470;2023-06-14T06:45:12;4.30;;;4.20;;
12800;SDS011;6464;42.494;27.470;2023-06-14T06:48:04;4.30;;;4.20;;
12800;SDS011;6464;42.494;27.470;2023-06-14T06:50:53;4.30;;;4.20;;
12800;SDS011;6464;42.494;27.470;2023-06-14T06:56:40;5.00;;;4.90;;
12800;SDS011;6464;42.494;27.470;2023-06-14T07:00:26;6.10;;;5.90;;
12800;SDS011;6464;42.494;27.470;2023-06-14T07:02:56;6.18;;;5.97;;
12800;SDS011;6464;42.494;27.470;2023-06-14T07:05:23;6.50;;;6.30;;
12800;SDS011;6464;42.494;27.470;2023-06-14T07:07:50;6.68;;;6.47;;
12800;SDS011;6464;42.494;27.470;2023-06-14T07:10:24;6.50;;;6.30;;
12800;SDS011;6464;42.494;27.470;2023-06-14T07:13:37;6.20;;;6.00;;
12800;SDS011;6464;42.494;27.470;2023-06-14T07:16:07;5.93;;;5.82;;
12800;SDS011;6464;42.494;27.470;2023-06-14T07:18:35;5.40;;;5.30;;
12800;SDS011;6464;42.494;27.470;2023-06-14T07:21:02;6.40;;;6.20;;
12800;SDS011;6464;42.494;27.470;2023-06-14T07:23:30;5.18;;;5.07;;
12800;SDS011;6464;42.494;27.470;2023-06-14T07:25:56;5.30;;;5.20;;
12800;SDS011;6464;42.494;27.470;2023-06-14T07:28:23;5.70;;;5.60;;
12800;SDS011;6464;42.494;27.470;2023-06-14T07:30:50;5.40;;;5.30;;
12800;SDS011;6464;42.494;27.470;2023-06-14T07:33:20;5.20;;;5.10;;
12800;SDS011;6464;42.494;27.470;2023-06-14T07:35:47;5.20;;;5.10;;
12800;SDS011;6464;42.494;27.470;2023-06-14T07:38:15;5.25;;;5.15;;
12800;SDS011;6464;42.494;27.470;2023-06-14T07:40:42;5.60;;;5.50;;
12800;SDS011;6464;42.494;27.470;2023-06-14T07:43:09;5.78;;;5.68;;
12800;SDS011;6464;42.494;27.470;2023-06-14T07:45:36;5.50;;;5.40;;
12800;SDS011;6464;42.494;27.470;2023-06-14T07:48:04;5.40;;;5.30;;
12800;SDS011;6464;42.494;27.470;2023-06-14T07:50:33;5.50;;;5.40;;
12800;SDS011;6464;42.494;27.470;2023-06-14T07:53:00;5.30;;;5.20;;
12800;SDS011;6464;42.494;27.470;2023-06-14T07:55:26;5.28;;;5.18;;
12800;SDS011;6464;42.494;27.470;2023-06-14T07:57:53;5.35;;;5.25;;
12800;SDS011;6464;42.494;27.470;2023-06-14T08:00:20;5.38;;;5.28;;
12800;SDS011;6464;42.494;27.470;2023-06-14T08:02:48;5.60;;;5.50;;
12800;SDS011;6464;42.494;27.470;2023-06-14T08:05:15;6.00;;;5.90;;
12800;SDS011;6464;42.494;27.470;2023-06-14T08:07:44;6.10;;;5.95;;
12800;SDS011;6464;42.494;27.470;2023-06-14T08:10:11;6.22;;;6.03;;
12800;SDS011;6464;42.494;27.470;2023-06-14T08:12:38;6.15;;;6.00;;
12800;SDS011;6464;42.494;27.470;2023-06-14T08:15:05;5.90;;;5.80;;
12800;SDS011;6464;42.494;27.470;2023-06-14T08:17:32;6.30;;;6.10;;
12800;SDS011;6464;42.494;27.470;2023-06-14T08:19:59;6.00;;;5.90;;
12800;SDS011;6464;42.494;27.470;2023-06-14T08:22:26;6.25;;;6.05;;
12800;SDS011;6464;42.494;27.470;2023-06-14T08:24:58;6.32;;;6.13;;
12800;SDS011;6464;42.494;27.470;2023-06-14T08:27:26;6.20;;;6.00;;
12800;SDS011;6464;42.494;27.470;2023-06-14T08:29:53;5.70;;;5.60;;
12800;SDS011;6464;42.494;27.470;2023-06-14T08:32:20;5.90;;;5.80;;
12800;SDS011;6464;42.494;27.470;2023-06-14T08:34:47;5.78;;;5.68;;
12800;SDS011;6464;42.494;27.470;2023-06-14T08:37:14;7.70;;;7.50;;
12800;SDS011;6464;42.494;27.470;2023-06-14T08:39:41;7.30;;;7.10;;
12800;SDS011;6464;42.494;27.470;2023-06-14T08:42:10;5.50;;;5.40;;
12800;SDS011;6464;42.494;27.470;2023-06-14T08:44:38;5.78;;;5.68;;
12800;SDS011;6464;42.494;27.470;2023-06-14T08:47:06;6.20;;;6.00;;
12800;SDS011;6464;42.494;27.470;2023-06-14T08:49:35;6.30;;;6.10;;
12800;SDS011;6464;42.494;27.470;2023-06-14T08:52:05;5.85;;;5.75;;
12800;SDS011;6464;42.494;27.470;2023-06-14T08:54:35;5.80;;;5.70;;
12800;SDS011;6464;42.494;27.470;2023-06-14T08:57:08;6.20;;;6.00;;
12800;SDS011;6464;42.494;27.470;2023-06-14T08:59:45;6.30;;;6.10;;
12800;SDS011;6464;42.494;27.470;2023-06-14T09:02:17;6.43;;;6.22;;
12800;SDS011;6464;42.494;27.470;2023-06-14T09:04:44;5.80;;;5.70;;
12800;SDS011;6464;42.494;27.470;2023-06-14T09:07:11;5.80;;;5.70;;
12800;SDS011;6464;42.494;27.470;2023-06-14T09:09:39;5.90;;;5.80;;
12800;SDS011;6464;42.494;27.470;2023-06-14T09:12:07;5.97;;;5.88;;
12800;SDS011;6464;42.494;27.470;2023-06-14T09:14:37;6.20;;;6.00;;
12800;SDS011;6464;42.494;27.470;2023-06-14T09:17:07;6.28;;;6.07;;
12800;SDS011;6464;42.494;27.470;2023-06-14T09:19:34;6.03;;;5.93;;
12800;SDS011;6464;42.494;27.470;2023-06-14T09:22:02;5.80;;;5.70;;
12800;SDS011;6464;42.494;27.470;2023-06-14T09:24:30;5.47;;;5.38;;
12800;SDS011;6464;42.494;27.470;2023-06-14T09:26:57;6.97;;;6.78;;
12800;SDS011;6464;42.494;27.470;2023-06-14T09:29:24;5.47;;;5.38;;
12800;SDS011;6464;42.494;27.470;2023-06-14T09:31:54;5.20;;;5.10;;
12800;SDS011;6464;42.494;27.470;2023-06-14T09:34:21;5.20;;;5.10;;
12800;SDS011;6464;42.494;27.470;2023-06-14T09:36:49;5.18;;;5.07;;
12800;SDS011;6464;42.494;27.470;2023-06-14T09:39:17;5.45;;;5.35;;
12800;SDS011;6464;42.494;27.470;2023-06-14T09:41:44;5.70;;;5.60;;
12800;SDS011;6464;42.494;27.470;2023-06-14T09:44:11;5.40;;;5.30;;
12800;SDS011;6464;42.494;27.470;2023-06-14T09:46:38;5.65;;;5.55;;
12800;SDS011;6464;42.494;27.470;2023-06-14T09:49:07;5.82;;;5.72;;
12800;SDS011;6464;42.494;27.470;2023-06-14T09:51:34;5.90;;;5.80;;
12800;SDS011;6464;42.494;27.470;2023-06-14T09:54:08;6.32;;;6.13;;
12800;SDS011;6464;42.494;27.470;2023-06-14T09:56:41;5.80;;;5.70;;
12800;SDS011;6464;42.494;27.470;2023-06-14T09:59:12;5.55;;;5.45;;
12800;SDS011;6464;42.494;27.470;2023-06-14T10:01:40;5.80;;;5.70;;
12800;SDS011;6464;42.494;27.470;2023-06-14T10:04:10;5.65;;;5.55;;
12800;SDS011;6464;42.494;27.470;2023-06-14T10:06:39;7.63;;;7.43;;
12800;SDS011;6464;42.494;27.470;2023-06-14T10:09:08;7.13;;;6.93;;
12800;SDS011;6464;42.494;27.470;2023-06-14T10:11:36;6.90;;;6.70;;
12800;SDS011;6464;42.494;27.470;2023-06-14T10:14:08;5.90;;;5.80;;
12800;SDS011;6464;42.494;27.470;2023-06-14T10:16:37;7.43;;;7.22;;
12800;SDS011;6464;42.494;27.470;2023-06-14T10:19:13;7.90;;;7.70;;
12800;SDS011;6464;42.494;27.470;2023-06-14T10:21:46;7.20;;;7.00;;
12800;SDS011;6464;42.494;27.470;2023-06-14T10:24:24;7.72;;;7.53;;
12800;SDS011;6464;42.494;27.470;2023-06-14T10:26:56;6.88;;;6.68;;
12800;SDS011;6464;42.494;27.470;2023-06-14T10:29:24;7.13;;;6.93;;
12800;SDS011;6464;42.494;27.470;2023-06-14T10:31:55;6.80;;;6.60;;
12800;SDS011;6464;42.494;27.470;2023-06-14T10:34:25;6.55;;;6.35;;
12800;SDS011;6464;42.494;27.470;2023-06-14T10:37:00;6.60;;;6.40;;
12800;SDS011;6464;42.494;27.470;2023-06-14T10:39:28;6.70;;;6.50;;
12800;SDS011;6464;42.494;27.470;2023-06-14T10:41:57;6.80;;;6.60;;
12800;SDS011;6464;42.494;27.470;2023-06-14T10:44:31;7.20;;;7.00;;
12800;SDS011;6464;42.494;27.470;2023-06-14T10:47:09;6.95;;;6.75;;
12800;SDS011;6464;42.494;27.470;2023-06-14T10:49:40;7.20;;;7.00;;
12800;SDS011;6464;42.494;27.470;2023-06-14T10:52:08;6.72;;;6.53;;
12800;SDS011;6464;42.494;27.470;2023-06-14T10:55:00;6.82;;;6.63;;
12800;SDS011;6464;42.494;27.470;2023-06-14T10:57:29;7.15;;;6.95;;
12800;SDS011;6464;42.494;27.470;2023-06-14T10:59:56;7.45;;;7.25;;
12800;SDS011;6464;42.494;27.470;2023-06-14T11:02:40;7.45;;;7.25;;
12800;SDS011;6464;42.494;27.470;2023-06-14T11:05:28;7.07;;;6.88;;
12800;SDS011;6464;42.494;27.470;2023-06-14T11:07:58;7.63;;;7.43;;
12800;SDS011;6464;42.494;27.470;2023-06-14T11:10:48;7.50;;;7.30;;
12800;SDS011;6464;42.494;27.470;2023-06-14T11:13:16;7.30;;;7.10;;
12800;SDS011;6464;42.494;27.470;2023-06-14T11:15:44;7.38;;;7.18;;
12800;SDS011;6464;42.494;27.470;2023-06-14T11:18:13;7.90;;;7.70;;
12800;SDS011;6464;42.494;27.470;2023-06-14T11:20:45;9.65;;;9.35;;
12800;SDS011;6464;42.494;27.470;2023-06-14T11:23:13;9.18;;;8.88;;
12800;SDS011;6464;42.494;27.470;2023-06-14T11:25:40;9.73;;;9.43;;
12800;SDS011;6464;42.494;27.470;2023-06-14T11:28:07;9.50;;;9.20;;
12800;SDS011;6464;42.494;27.470;2023-06-14T11:30:35;9.05;;;8.75;;
12800;SDS011;6464;42.494;27.470;2023-06-14T11:33:02;9.50;;;9.20;;
12800;SDS011;6464;42.494;27.470;2023-06-14T11:35:30;9.95;;;9.65;;
12800;SDS011;6464;42.494;27.470;2023-06-14T11:37:58;9.80;;;9.50;;
12800;SDS011;6464;42.494;27.470;2023-06-14T11:40:26;9.68;;;9.38;;
12800;SDS011;6464;42.494;27.470;2023-06-14T11:42:57;9.63;;;9.32;;
12800;SDS011;6464;42.494;27.470;2023-06-14T11:45:26;9.60;;;9.30;;
12800;SDS011;6464;42.494;27.470;2023-06-14T11:47:54;7.60;;;7.40;;
12800;SDS011;6464;42.494;27.470;2023-06-14T11:50:22;7.40;;;7.20;;
12800;SDS011;6464;42.494;27.470;2023-06-14T11:52:52;7.95;;;7.75;;
12800;SDS011;6464;42.494;27.470;2023-06-14T11:55:21;7.90;;;7.70;;
12800;SDS011;6464;42.494;27.470;2023-06-14T11:57:48;7.60;;;7.40;;
12800;SDS011;6464;42.494;27.470;2023-06-14T12:00:15;8.50;;;8.20;;
12800;SDS011;6464;42.494;27.470;2023-06-14T12:02:51;7.57;;;7.38;;
12800;SDS011;6464;42.494;27.470;2023-06-14T12:05:20;8.32;;;8.02;;
12800;SDS011;6464;42.494;27.470;2023-06-14T12:07:48;7.90;;;7.70;;
12800;SDS011;6464;42.494;27.470;2023-06-14T12:10:15;8.00;;;7.80;;
12800;SDS011;6464;42.494;27.470;2023-06-14T12:12:44;7.70;;;7.50;;
12800;SDS011;6464;42.494;27.470;2023-06-14T12:15:11;7.75;;;7.55;;
12800;SDS011;6464;42.494;27.470;2023-06-14T12:17:38;8.35;;;8.07;;
12800;SDS011;6464;42.494;27.470;2023-06-14T12:20:08;8.80;;;8.50;;
12800;SDS011;6464;42.494;27.470;2023-06-14T12:22:38;7.63;;;7.43;;
12800;SDS011;6464;42.494;27.470;2023-06-14T12:25:06;7.38;;;7.18;;
12800;SDS011;6464;42.494;27.470;2023-06-14T12:27:34;7.40;;;7.20;;
12800;SDS011;6464;42.494;27.470;2023-06-14T12:30:03;7.30;;;7.10;;
12800;SDS011;6464;42.494;27.470;2023-06-14T12:32:32;7.30;;;7.10;;
12800;SDS011;6464;42.494;27.470;2023-06-14T12:34:59;6.90;;;6.70;;
12800;SDS011;6464;42.494;27.470;2023-06-14T12:37:26;7.18;;;6.97;;
12800;SDS011;6464;42.494;27.470;2023-06-14T12:39:54;7.90;;;7.70;;
12800;SDS011;6464;42.494;27.470;2023-06-14T12:42:21;7.60;;;7.40;;
12800;SDS011;6464;42.494;27.470;2023-06-14T12:44:48;7.85;;;7.65;;
12800;SDS011;6464;42.494;27.470;2023-06-14T12:47:16;7.80;;;7.60;;
12800;SDS011;6464;42.494;27.470;2023-06-14T12:49:43;7.90;;;7.70;;
12800;SDS011;6464;42.494;27.470;2023-06-14T12:52:10;8.02;;;7.82;;
12800;SDS011;6464;42.494;27.470;2023-06-14T12:54:37;7.68;;;7.47;;
12800;SDS011;6464;42.494;27.470;2023-06-14T12:57:04;9.05;;;8.75;;
12800;SDS011;6464;42.494;27.470;2023-06-14T12:59:32;9.50;;;9.20;;
12800;SDS011;6464;42.494;27.470;2023-06-14T13:02:00;9.35;;;9.05;;
12800;SDS011;6464;42.494;27.470;2023-06-14T13:04:38;8.13;;;7.93;;
12800;SDS011;6464;42.494;27.470;2023-06-14T13:07:05;8.45;;;8.15;;
12800;SDS011;6464;42.494;27.470;2023-06-14T13:09:32;7.80;;;7.60;;
12800;SDS011;6464;42.494;27.470;2023-06-14T13:11:59;7.80;;;7.60;;
12800;SDS011;6464;42.494;27.470;2023-06-14T13:14:26;7.88;;;7.68;;
12800;SDS011;6464;42.494;27.470;2023-06-14T13:16:53;7.80;;;7.60;;
12800;SDS011;6464;42.494;27.470;2023-06-14T13:19:20;7.40;;;7.20;;
12800;SDS011;6464;42.494;27.470;2023-06-14T13:21:49;7.40;;;7.20;;
12800;SDS011;6464;42.494;27.470;2023-06-14T13:24:15;7.20;;;7.00;;
12800;SDS011;6464;42.494;27.470;2023-06-14T13:26:43;7.20;;;7.00;;
12800;SDS011;6464;42.494;27.470;2023-06-14T13:29:11;7.07;;;6.88;;
12800;SDS011;6464;42.494;27.470;2023-06-14T13:31:40;7.70;;;7.50;;
12800;SDS011;6464;42.494;27.470;2023-06-14T13:34:09;7.88;;;7.68;;
12800;SDS011;6464;42.494;27.470;2023-06-14T13:36:36;7.35;;;7.15;;
12800;SDS011;6464;42.494;27.470;2023-06-14T13:39:04;7.40;;;7.20;;
12800;SDS011;6464;42.494;27.470;2023-06-14T13:41:31;7.20;;;7.00;;
12800;SDS011;6464;42.494;27.470;2023-06-14T13:44:00;7.20;;;7.00;;
12800;SDS011;6464;42.494;27.470;2023-06-14T13:46:29;7.55;;;7.35;;
12800;SDS011;6464;42.494;27.470;2023-06-14T13:48:56;7.18;;;6.97;;
12800;SDS011;6464;42.494;27.470;2023-06-14T13:51:23;7.28;;;7.07;;
12800;SDS011;6464;42.494;27.470;2023-06-14T13:53:52;7.78;;;7.57;;
12800;SDS011;6464;42.494;27.470;2023-06-14T13:56:22;8.00;;;7.80;;
12800;SDS011;6464;42.494;27.470;2023-06-14T13:58:49;7.57;;;7.38;;
12800;SDS011;6464;42.494;27.470;2023-06-14T14:01:17;7.93;;;7.72;;
12800;SDS011;6464;42.494;27.470;2023-06-14T14:03:45;7.63;;;7.43;;
12800;SDS011;6464;42.494;27.470;2023-06-14T14:06:12;8.50;;;8.20;;
12800;SDS011;6464;42.494;27.470;2023-06-14T14:08:39;8.50;;;8.20;;
12800;SDS011;6464;42.494;27.470;2023-06-14T14:11:06;7.97;;;7.78;;
12800;SDS011;6464;42.494;27.470;2023-06-14T14:13:36;8.25;;;8.02;;
12800;SDS011;6464;42.494;27.470;2023-06-14T14:16:03;8.23;;;8.02;;
12800;SDS011;6464;42.494;27.470;2023-06-14T14:18:31;8.00;;;7.80;;
12800;SDS011;6464;42.494;27.470;2023-06-14T14:20:58;7.88;;;7.68;;
12800;SDS011;6464;42.494;27.470;2023-06-14T14:23:25;7.50;;;7.30;;
12800;SDS011;6464;42.494;27.470;2023-06-14T14:25:53;7.40;;;7.20;;
12800;SDS011;6464;42.494;27.470;2023-06-14T14:28:19;8.68;;;8.38;;
12800;SDS011;6464;42.494;27.470;2023-06-14T14:30:48;8.40;;;8.10;;
12800;SDS011;6464;42.494;27.470;2023-06-14T14:33:15;8.20;;;8.00;;
12800;SDS011;6464;42.494;27.470;2023-06-14T14:35:42;7.22;;;7.03;;
12800;SDS011;6464;42.494;27.470;2023-06-14T14:38:11;7.50;;;7.30;;
12800;SDS011;6464;42.494;27.470;2023-06-14T14:40:38;7.68;;;7.47;;
12800;SDS011;6464;42.494;27.470;2023-06-14T14:43:05;7.70;;;7.50;;
12800;SDS011;6464;42.494;27.470;2023-06-14T14:45:32;7.82;;;7.63;;
12800;SDS011;6464;42.494;27.470;2023-06-14T14:48:01;7.75;;;7.55;;
12800;SDS011;6464;42.494;27.470;2023-06-14T14:50:28;7.80;;;7.60;;
12800;SDS011;6464;42.494;27.470;2023-06-14T14:52:55;7.78;;;7.57;;
12800;SDS011;6464;42.494;27.470;2023-06-14T14:55:22;7.65;;;7.45;;
12800;SDS011;6464;42.494;27.470;2023-06-14T14:57:49;7.93;;;7.72;;
12800;SDS011;6464;42.494;27.470;2023-06-14T15:00:17;8.18;;;7.97;;
12800;SDS011;6464;42.494;27.470;2023-06-14T15:02:44;8.10;;;7.90;;
12800;SDS011;6464;42.494;27.470;2023-06-14T15:05:12;8.45;;;8.15;;
12800;SDS011;6464;42.494;27.470;2023-06-14T15:07:39;8.40;;;8.10;;
12800;SDS011;6464;42.494;27.470;2023-06-14T15:10:06;7.95;;;7.75;;
12800;SDS011;6464;42.494;27.470;2023-06-14T15:12:34;7.72;;;7.53;;
12800;SDS011;6464;42.494;27.470;2023-06-14T15:15:02;7.75;;;7.55;;
12800;SDS011;6464;42.494;27.470;2023-06-14T15:17:29;8.00;;;7.80;;
12800;SDS011;6464;42.494;27.470;2023-06-14T15:19:56;8.10;;;7.90;;
12800;SDS011;6464;42.494;27.470;2023-06-14T15:22:25;8.00;;;7.80;;
12800;SDS011;6464;42.494;27.470;2023-06-14T15:24:52;8.05;;;7.85;;
12800;SDS011;6464;42.494;27.470;2023-06-14T15:27:18;8.00;;;7.80;;
12800;SDS011;6464;42.494;27.470;2023-06-14T15:29:45;8.10;;;7.90;;
12800;SDS011;6464;42.494;27.470;2023-06-14T15:32:13;8.20;;;8.00;;
12800;SDS011;6464;42.494;27.470;2023-06-14T15:34:40;8.07;;;7.88;;
12800;SDS011;6464;42.494;27.470;2023-06-14T15:37:07;7.95;;;7.75;;
12800;SDS011;6464;42.494;27.470;2023-06-14T15:39:35;7.70;;;7.50;;
12800;SDS011;6464;42.494;27.470;2023-06-14T15:42:02;7.78;;;7.57;;
12800;SDS011;6464;42.494;27.470;2023-06-14T15:44:29;7.90;;;7.70;;
12800;SDS011;6464;42.494;27.470;2023-06-14T15:46:56;8.13;;;7.93;;
12800;SDS011;6464;42.494;27.470;2023-06-14T15:49:23;7.85;;;7.65;;
12800;SDS011;6464;42.494;27.470;2023-06-14T15:51:51;7.95;;;7.75;;
12800;SDS011;6464;42.494;27.470;2023-06-14T15:54:17;7.65;;;7.45;;
12800;SDS011;6464;42.494;27.470;2023-06-14T15:56:46;7.47;;;7.28;;
12800;SDS011;6464;42.494;27.470;2023-06-14T15:59:13;7.65;;;7.45;;
12800;SDS011;6464;42.494;27.470;2023-06-14T16:01:40;7.57;;;7.38;;
12800;SDS011;6464;42.494;27.470;2023-06-14T16:04:07;8.27;;;8.00;;
12800;SDS011;6464;42.494;27.470;2023-06-14T16:06:34;7.90;;;7.70;;
12800;SDS011;6464;42.494;27.470;2023-06-14T16:09:01;8.10;;;7.90;;
12800;SDS011;6464;42.494;27.470;2023-06-14T16:11:29;7.65;;;7.45;;
12800;SDS011;6464;42.494;27.470;2023-06-14T16:13:57;7.50;;;7.30;;
12800;SDS011;6464;42.494;27.470;2023-06-14T16:16:24;7.68;;;7.47;;
12800;SDS011;6464;42.494;27.470;2023-06-14T16:18:51;7.70;;;7.50;;
12800;SDS011;6464;42.494;27.470;2023-06-14T16:21:18;7.90;;;7.70;;
12800;SDS011;6464;42.494;27.470;2023-06-14T16:23:45;7.40;;;7.20;;
12800;SDS011;6464;42.494;27.470;2023-06-14T16:26:12;7.30;;;7.10;;
12800;SDS011;6464;42.494;27.470;2023-06-14T16:28:39;7.70;;;7.50;;
12800;SDS011;6464;42.494;27.470;2023-06-14T16:31:09;7.70;;;7.50;;
12800;SDS011;6464;42.494;27.470;2023-06-14T16:33:39;7.53;;;7.32;;
12800;SDS011;6464;42.494;27.470;2023-06-14T16:36:06;7.22;;;7.03;;
12800;SDS011;6464;42.494;27.470;2023-06-14T16:38:33;6.93;;;6.72;;
12800;SDS011;6464;42.494;27.470;2023-06-14T16:41:00;7.05;;;6.85;;
12800;SDS011;6464;42.494;27.470;2023-06-14T16:43:27;7.30;;;7.10;;
12800;SDS011;6464;42.494;27.470;2023-06-14T16:45:54;7.30;;;7.10;;
12800;SDS011;6464;42.494;27.470;2023-06-14T16:48:22;6.80;;;6.60;;
12800;SDS011;6464;42.494;27.470;2023-06-14T16:50:49;7.05;;;6.85;;
12800;SDS011;6464;42.494;27.470;2023-06-14T16:53:16;6.97;;;6.78;;
12800;SDS011;6464;42.494;27.470;2023-06-14T16:55:43;7.40;;;7.20;;
12800;SDS011;6464;42.494;27.470;2023-06-14T16:58:10;7.40;;;7.20;;
12800;SDS011;6464;42.494;27.470;2023-06-14T17:00:36;6.97;;;6.78;;
12800;SDS011;6464;42.494;27.470;2023-06-14T17:03:03;7.30;;;7.10;;
12800;SDS011;6464;42.494;27.470;2023-06-14T17:05:32;7.10;;;6.90;;
12800;SDS011;6464;42.494;27.470;2023-06-14T17:07:59;6.78;;;6.57;;
12800;SDS011;6464;42.494;27.470;2023-06-14T17:10:27;6.75;;;6.55;;
12800;SDS011;6464;42.494;27.470;2023-06-14T17:12:54;6.70;;;6.50;;
12800;SDS011;6464;42.494;27.470;2023-06-14T17:15:20;6.80;;;6.60;;
12800;SDS011;6464;42.494;27.470;2023-06-14T17:17:47;6.70;;;6.50;;
12800;SDS011;6464;42.494;27.470;2023-06-14T17:20:14;6.50;;;6.30;;
12800;SDS011;6464;42.494;27.470;2023-06-14T17:22:43;6.55;;;6.35;;
12800;SDS011;6464;42.494;27.470;2023-06-14T17:25:09;6.50;;;6.30;;
12800;SDS011;6464;42.494;27.470;2023-06-14T17:27:36;6.00;;;5.90;;
12800;SDS011;6464;42.494;27.470;2023-06-14T17:30:04;5.50;;;5.40;;
12800;SDS011;6464;42.494;27.470;2023-06-14T17:32:31;5.50;;;5.40;;
12800;SDS011;6464;42.494;27.470;2023-06-14T17:34:58;5.50;;;5.40;;
12800;SDS011;6464;42.494;27.470;2023-06-14T17:37:27;5.47;;;5.38;;
12800;SDS011;6464;42.494;27.470;2023-06-14T17:39:56;5.10;;;5.00;;
12800;SDS011;6464;42.494;27.470;2023-06-14T17:42:22;5.00;;;4.90;;
12800;SDS011;6464;42.494;27.470;2023-06-14T17:44:49;4.75;;;4.65;;
12800;SDS011;6464;42.494;27.470;2023-06-14T17:47:20;4.70;;;4.60;;
12800;SDS011;6464;42.494;27.470;2023-06-14T17:49:47;4.85;;;4.75;;
12800;SDS011;6464;42.494;27.470;2023-06-14T17:52:16;4.80;;;4.70;;
12800;SDS011;6464;42.494;27.470;2023-06-14T17:54:43;4.90;;;4.80;;
12800;SDS011;6464;42.494;27.470;2023-06-14T17:57:11;5.00;;;4.90;;
12800;SDS011;6464;42.494;27.470;2023-06-14T17:59:39;4.57;;;4.47;;
12800;SDS011;6464;42.494;27.470;2023-06-14T18:02:06;4.50;;;4.40;;
12800;SDS011;6464;42.494;27.470;2023-06-14T18:04:33;4.65;;;4.55;;
12800;SDS011;6464;42.494;27.470;2023-06-14T18:07:00;4.88;;;4.78;;
12800;SDS011;6464;42.494;27.470;2023-06-14T18:09:27;4.80;;;4.70;;
12800;SDS011;6464;42.494;27.470;2023-06-14T18:11:55;4.40;;;4.30;;
12800;SDS011;6464;42.494;27.470;2023-06-14T18:14:23;4.40;;;4.30;;
12800;SDS011;6464;42.494;27.470;2023-06-14T18:16:50;4.30;;;4.20;;
12800;SDS011;6464;42.494;27.470;2023-06-14T18:19:17;4.30;;;4.20;;
12800;SDS011;6464;42.494;27.470;2023-06-14T18:21:45;4.38;;;4.28;;
12800;SDS011;6464;42.494;27.470;2023-06-14T18:24:13;4.20;;;4.10;;
12800;SDS011;6464;42.494;27.470;2023-06-14T18:26:41;4.00;;;3.90;;
12800;SDS011;6464;42.494;27.470;2023-06-14T18:29:09;3.90;;;3.80;;
12800;SDS011;6464;42.494;27.470;2023-06-14T18:31:37;3.90;;;3.80;;
12800;SDS011;6464;42.494;27.470;2023-06-14T18:34:04;3.70;;;3.70;;
12800;SDS011;6464;42.494;27.470;2023-06-14T18:36:31;4.25;;;4.15;;
12800;SDS011;6464;42.494;27.470;2023-06-14T18:38:58;3.30;;;3.30;;
12800;SDS011;6464;42.494;27.470;2023-06-14T18:41:25;3.20;;;3.20;;
12800;SDS011;6464;42.494;27.470;2023-06-14T18:43:52;3.00;;;3.00;;
12800;SDS011;6464;42.494;27.470;2023-06-14T18:46:19;2.92;;;2.92;;
12800;SDS011;6464;42.494;27.470;2023-06-14T18:48:49;3.20;;;3.20;;
12800;SDS011;6464;42.494;27.470;2023-06-14T18:51:17;2.60;;;2.60;;
12800;SDS011;6464;42.494;27.470;2023-06-14T18:53:44;2.50;;;2.50;;
12800;SDS011;6464;42.494;27.470;2023-06-14T18:56:11;2.70;;;2.70;;
12800;SDS011;6464;42.494;27.470;2023-06-14T18:58:38;2.60;;;2.60;;
12800;SDS011;6464;42.494;27.470;2023-06-14T19:01:05;2.30;;;2.30;;
12800;SDS011;6464;42.494;27.470;2023-06-14T19:03:33;2.40;;;2.40;;
12800;SDS011;6464;42.494;27.470;2023-06-14T19:06:02;2.20;;;2.20;;
12800;SDS011;6464;42.494;27.470;2023-06-14T19:08:29;2.13;;;2.13;;
12800;SDS011;6464;42.494;27.470;2023-06-14T19:10:58;2.20;;;2.20;;
12800;SDS011;6464;42.494;27.470;2023-06-14T19:13:25;2.10;;;2.10;;
12800;SDS011;6464;42.494;27.470;2023-06-14T19:15:53;1.90;;;1.90;;
12800;SDS011;6464;42.494;27.470;2023-06-14T19:18:21;2.00;;;2.00;;
12800;SDS011;6464;42.494;27.470;2023-06-14T19:21:04;2.00;;;2.00;;
12800;SDS011;6464;42.494;27.470;2023-06-14T19:23:31;1.90;;;1.90;;
12800;SDS011;6464;42.494;27.470;2023-06-14T19:26:02;2.10;;;2.10;;
12800;SDS011;6464;42.494;27.470;2023-06-14T19:28:30;2.00;;;2.00;;
12800;SDS011;6464;42.494;27.470;2023-06-14T19:30:58;1.80;;;1.80;;
12800;SDS011;6464;42.494;27.470;2023-06-14T19:40:20;1.77;;;1.77;;
12800;SDS011;6464;42.494;27.470;2023-06-14T19:42:47;1.80;;;1.80;;
12800;SDS011;6464;42.494;27.470;2023-06-14T19:45:14;1.80;;;1.80;;
12800;SDS011;6464;42.494;27.470;2023-06-14T19:47:42;1.80;;;1.80;;
12800;SDS011;6464;42.494;27.470;2023-06-14T19:50:10;1.60;;;1.60;;